sensor_id;sensor_type;location;lat;lon;timestamp;pressure;altitude;pressure_sealevel;temperature
79148;BMP280;68562;51.600;6.524;2023-04-30T00:00:00;1022.0;;;12.5
79148;BMP280;68562;51.600;6.524;2023-04-30T00:05:00;1022.0;;;12.5
79148;BMP280;68562;51.600;6.524;2023-04-30T00:10:00;1022.1;;;12.4
79148;BMP280;68562;51.600;6.524;2023-04-30T00:15:00;1022.1;;;12.4
79148;BMP280;68562;51.600;6.524;2023-04-30T00:20:00;1022.0;;;12.3
79148;BMP280;68562;51.600;6.524;2023-04-30T00:25:00;1022.1;;;12.3
79148;BMP280;68562;51.600;6.524;2023-04-30T00:30:00;1022.2;;;12.2
79148;BMP280;68562;51.600;6.524;2023-04-30T00:35:00;1022.2;;;12.1
79148;BMP280;68562;51.600;6.524;2023-04-30T00:40:00;1022.1;;;12.1
79148;BMP280;68562;51.600;6.524;2023-04-30T00:45:00;1022.2;;;12.0
79148;BMP280;68562;51.600;6.524;2023-04-30T00:50:00;1022.1;;;11.9
79148;BMP280;68562;51.600;6.524;2023-04-30T00:55:00;1022.2;;;11.9
79148;BMP280;68562;51.600;6.524;2023-04-30T01:00:00;1022.2;;;11.8
79148;BMP280;68562;51.600;6.524;2023-04-30T01:05:01;1022.1;;;11.7
79148;BMP280;68562;51.600;6.524;2023-04-30T01:10:00;1022.1;;;11.6
79148;BMP280;68562;51.600;6.524;2023-04-30T01:15:03;1022.2;;;11.5
79148;BMP280;68562;51.600;6.524;2023-04-30T01:20:00;1022.2;;;11.4
79148;BMP280;68562;51.600;6.524;2023-04-30T01:25:10;1022.2;;;11.3
79148;BMP280;68562;51.600;6.524;2023-04-30T01:30:00;1022.2;;;11.2
79148;BMP280;68562;51.600;6.524;2023-04-30T01:35:00;1022.1;;;11.2
79148;BMP280;68562;51.600;6.524;2023-04-30T01:40:11;1022.1;;;11.1
79148;BMP280;68562;51.600;6.524;2023-04-30T01:45:11;1022.0;;;11.1
79148;BMP280;68562;51.600;6.524;2023-04-30T01:50:11;1022.0;;;11.0
79148;BMP280;68562;51.600;6.524;2023-04-30T01:55:04;1022.0;;;10.9
79148;BMP280;68562;51.600;6.524;2023-04-30T02:00:00;1022.1;;;10.9
79148;BMP280;68562;51.600;6.524;2023-04-30T02:05:00;1022.1;;;10.8
79148;BMP280;68562;51.600;6.524;2023-04-30T02:10:00;1022.2;;;10.8
79148;BMP280;68562;51.600;6.524;2023-04-30T02:15:01;1022.2;;;10.7
79148;BMP280;68562;51.600;6.524;2023-04-30T02:20:00;1022.3;;;10.7
79148;BMP280;68562;51.600;6.524;2023-04-30T02:25:00;1022.2;;;10.6
79148;BMP280;68562;51.600;6.524;2023-04-30T02:30:00;1022.2;;;10.6
79148;BMP280;68562;51.600;6.524;2023-04-30T02:35:00;1022.2;;;10.5
79148;BMP280;68562;51.600;6.524;2023-04-30T02:40:00;1022.2;;;10.5
79148;BMP280;68562;51.600;6.524;2023-04-30T02:45:00;1022.1;;;10.4
79148;BMP280;68562;51.600;6.524;2023-04-30T02:50:00;1022.1;;;10.4
79148;BMP280;68562;51.600;6.524;2023-04-30T02:55:00;1022.0;;;10.4
79148;BMP280;68562;51.600;6.524;2023-04-30T03:00:00;1022.0;;;10.3
79148;BMP280;68562;51.600;6.524;2023-04-30T03:05:00;1022.0;;;10.3
79148;BMP280;68562;51.600;6.524;2023-04-30T03:10:00;1022.0;;;10.2
79148;BMP280;68562;51.600;6.524;2023-04-30T03:15:00;1022.0;;;10.2
79148;BMP280;68562;51.600;6.524;2023-04-30T03:20:00;1022.1;;;10.1
79148;BMP280;68562;51.600;6.524;2023-04-30T03:25:00;1022.1;;;10.1
79148;BMP280;68562;51.600;6.524;2023-04-30T03:30:00;1022.1;;;10.0
79148;BMP280;68562;51.600;6.524;2023-04-30T03:35:00;1022.1;;;10.0
79148;BMP280;68562;51.600;6.524;2023-04-30T03:40:00;1022.1;;;9.9
79148;BMP280;68562;51.600;6.524;2023-04-30T03:45:00;1022.1;;;9.9
79148;BMP280;68562;51.600;6.524;2023-04-30T03:50:00;1022.1;;;9.9
79148;BMP280;68562;51.600;6.524;2023-04-30T03:55:00;1022.2;;;9.8
79148;BMP280;68562;51.600;6.524;2023-04-30T04:00:00;1022.1;;;9.8
79148;BMP280;68562;51.600;6.524;2023-04-30T04:05:00;1022.1;;;9.8
79148;BMP280;68562;51.600;6.524;2023-04-30T04:10:00;1022.1;;;9.8
79148;BMP280;68562;51.600;6.524;2023-04-30T04:15:00;1022.1;;;9.8
79148;BMP280;68562;51.600;6.524;2023-04-30T04:20:00;1022.0;;;9.8
79148;BMP280;68562;51.600;6.524;2023-04-30T04:25:00;1022.1;;;9.8
79148;BMP280;68562;51.600;6.524;2023-04-30T04:30:01;1022.1;;;9.8
79148;BMP280;68562;51.600;6.524;2023-04-30T04:35:00;1022.2;;;9.8
79148;BMP280;68562;51.600;6.524;2023-04-30T04:40:00;1022.2;;;9.8
79148;BMP280;68562;51.600;6.524;2023-04-30T04:45:00;1022.2;;;9.8
79148;BMP280;68562;51.600;6.524;2023-04-30T04:50:00;1022.2;;;9.9
79148;BMP280;68562;51.600;6.524;2023-04-30T04:55:00;1022.3;;;9.9
79148;BMP280;68562;51.600;6.524;2023-04-30T05:00:00;1022.4;;;10.0
79148;BMP280;68562;51.600;6.524;2023-04-30T05:05:00;1022.3;;;10.0
79148;BMP280;68562;51.600;6.524;2023-04-30T05:10:00;1022.3;;;10.1
79148;BMP280;68562;51.600;6.524;2023-04-30T05:15:00;1022.4;;;10.2
79148;BMP280;68562;51.600;6.524;2023-04-30T05:20:00;1022.4;;;10.3
79148;BMP280;68562;51.600;6.524;2023-04-30T05:25:00;1022.4;;;10.3
79148;BMP280;68562;51.600;6.524;2023-04-30T05:30:00;1022.4;;;10.4
79148;BMP280;68562;51.600;6.524;2023-04-30T05:35:00;1022.4;;;10.5
79148;BMP280;68562;51.600;6.524;2023-04-30T05:40:00;1022.4;;;10.6
79148;BMP280;68562;51.600;6.524;2023-04-30T05:45:01;1022.5;;;10.7
79148;BMP280;68562;51.600;6.524;2023-04-30T05:50:00;1022.5;;;10.8
79148;BMP280;68562;51.600;6.524;2023-04-30T05:55:00;1022.5;;;10.9
79148;BMP280;68562;51.600;6.524;2023-04-30T06:00:00;1022.5;;;11.1
79148;BMP280;68562;51.600;6.524;2023-04-30T06:05:00;1022.5;;;11.1
79148;BMP280;68562;51.600;6.524;2023-04-30T06:10:00;1022.5;;;11.3
79148;BMP280;68562;51.600;6.524;2023-04-30T06:15:00;1022.5;;;11.4
79148;BMP280;68562;51.600;6.524;2023-04-30T06:20:00;1022.5;;;11.7
79148;BMP280;68562;51.600;6.524;2023-04-30T06:25:00;1022.5;;;12.1
79148;BMP280;68562;51.600;6.524;2023-04-30T06:30:00;1022.5;;;12.4
79148;BMP280;68562;51.600;6.524;2023-04-30T06:35:00;1022.6;;;12.7
79148;BMP280;68562;51.600;6.524;2023-04-30T06:40:00;1022.6;;;13.0
79148;BMP280;68562;51.600;6.524;2023-04-30T06:45:00;1022.6;;;13.4
79148;BMP280;68562;51.600;6.524;2023-04-30T06:50:00;1022.6;;;13.7
79148;BMP280;68562;51.600;6.524;2023-04-30T06:55:00;1022.5;;;14.0
79148;BMP280;68562;51.600;6.524;2023-04-30T07:00:00;1022.5;;;14.4
79148;BMP280;68562;51.600;6.524;2023-04-30T07:05:00;1022.4;;;14.7
79148;BMP280;68562;51.600;6.524;2023-04-30T07:10:00;1022.4;;;14.9
79148;BMP280;68562;51.600;6.524;2023-04-30T07:15:00;1022.5;;;15.3
79148;BMP280;68562;51.600;6.524;2023-04-30T07:20:00;1022.5;;;15.6
79148;BMP280;68562;51.600;6.524;2023-04-30T07:25:00;1022.5;;;16.0
79148;BMP280;68562;51.600;6.524;2023-04-30T07:30:00;1022.5;;;16.4
79148;BMP280;68562;51.600;6.524;2023-04-30T07:35:00;1022.5;;;16.9
79148;BMP280;68562;51.600;6.524;2023-04-30T07:40:00;1022.6;;;17.4
79148;BMP280;68562;51.600;6.524;2023-04-30T07:45:00;1022.5;;;18.0
79148;BMP280;68562;51.600;6.524;2023-04-30T07:50:00;1022.5;;;18.6
79148;BMP280;68562;51.600;6.524;2023-04-30T07:55:00;1022.5;;;19.1
79148;BMP280;68562;51.600;6.524;2023-04-30T08:00:00;1022.5;;;19.6
79148;BMP280;68562;51.600;6.524;2023-04-30T08:05:00;1022.5;;;20.1
79148;BMP280;68562;51.600;6.524;2023-04-30T08:10:00;1022.5;;;20.7
79148;BMP280;68562;51.600;6.524;2023-04-30T08:15:01;1022.5;;;21.3
79148;BMP280;68562;51.600;6.524;2023-04-30T08:20:00;1022.5;;;21.7
79148;BMP280;68562;51.600;6.524;2023-04-30T08:25:00;1022.6;;;22.2
79148;BMP280;68562;51.600;6.524;2023-04-30T08:30:00;1022.5;;;22.6
79148;BMP280;68562;51.600;6.524;2023-04-30T08:35:00;1022.5;;;23.1
79148;BMP280;68562;51.600;6.524;2023-04-30T08:40:00;1022.4;;;23.6
79148;BMP280;68562;51.600;6.524;2023-04-30T08:45:02;1022.3;;;23.9
79148;BMP280;68562;51.600;6.524;2023-04-30T08:50:00;1022.4;;;24.1
79148;BMP280;68562;51.600;6.524;2023-04-30T08:55:00;1022.4;;;24.5
79148;BMP280;68562;51.600;6.524;2023-04-30T09:00:00;1022.4;;;24.9
79148;BMP280;68562;51.600;6.524;2023-04-30T09:05:00;1022.4;;;25.5
79148;BMP280;68562;51.600;6.524;2023-04-30T09:10:00;1022.3;;;26.1
79148;BMP280;68562;51.600;6.524;2023-04-30T09:15:02;1022.3;;;26.7
79148;BMP280;68562;51.600;6.524;2023-04-30T09:20:08;1022.3;;;27.4
79148;BMP280;68562;51.600;6.524;2023-04-30T09:25:00;1022.3;;;27.8
79148;BMP280;68562;51.600;6.524;2023-04-30T09:30:00;1022.2;;;28.2
79148;BMP280;68562;51.600;6.524;2023-04-30T09:35:00;1022.2;;;28.5
79148;BMP280;68562;51.600;6.524;2023-04-30T09:40:00;1022.1;;;28.9
79148;BMP280;68562;51.600;6.524;2023-04-30T09:45:00;1022.1;;;29.0
79148;BMP280;68562;51.600;6.524;2023-04-30T09:50:00;1022.1;;;29.2
79148;BMP280;68562;51.600;6.524;2023-04-30T09:55:00;1022.1;;;29.5
79148;BMP280;68562;51.600;6.524;2023-04-30T10:00:01;1022.1;;;30.0
79148;BMP280;68562;51.600;6.524;2023-04-30T10:05:00;1022.0;;;30.5
79148;BMP280;68562;51.600;6.524;2023-04-30T10:10:06;1022.0;;;31.0
79148;BMP280;68562;51.600;6.524;2023-04-30T10:15:05;1021.9;;;31.4
79148;BMP280;68562;51.600;6.524;2023-04-30T10:20:02;1021.8;;;31.9
79148;BMP280;68562;51.600;6.524;2023-04-30T10:25:01;1021.7;;;32.1
79148;BMP280;68562;51.600;6.524;2023-04-30T10:30:01;1021.7;;;32.1
79148;BMP280;68562;51.600;6.524;2023-04-30T10:35:09;1021.7;;;32.2
79148;BMP280;68562;51.600;6.524;2023-04-30T10:40:00;1021.7;;;32.4
79148;BMP280;68562;51.600;6.524;2023-04-30T10:45:00;1021.6;;;32.7
79148;BMP280;68562;51.600;6.524;2023-04-30T10:50:02;1021.6;;;33.1
79148;BMP280;68562;51.600;6.524;2023-04-30T10:55:03;1021.5;;;33.2
79148;BMP280;68562;51.600;6.524;2023-04-30T11:00:17;1021.4;;;33.4
79148;BMP280;68562;51.600;6.524;2023-04-30T11:05:08;1021.4;;;33.6
79148;BMP280;68562;51.600;6.524;2023-04-30T11:10:01;1021.3;;;33.7
79148;BMP280;68562;51.600;6.524;2023-04-30T11:15:04;1021.3;;;33.8
79148;BMP280;68562;51.600;6.524;2023-04-30T11:20:00;1021.3;;;34.3
79148;BMP280;68562;51.600;6.524;2023-04-30T11:25:03;1021.3;;;34.7
79148;BMP280;68562;51.600;6.524;2023-04-30T11:30:02;1021.2;;;35.1
79148;BMP280;68562;51.600;6.524;2023-04-30T11:35:00;1021.1;;;35.0
79148;BMP280;68562;51.600;6.524;2023-04-30T11:40:02;1021.0;;;34.7
79148;BMP280;68562;51.600;6.524;2023-04-30T11:45:01;1021.1;;;34.0
79148;BMP280;68562;51.600;6.524;2023-04-30T11:50:00;1021.0;;;33.8
79148;BMP280;68562;51.600;6.524;2023-04-30T11:55:01;1021.0;;;33.6
79148;BMP280;68562;51.600;6.524;2023-04-30T12:00:07;1020.9;;;32.9
79148;BMP280;68562;51.600;6.524;2023-04-30T12:05:00;1020.9;;;32.9
79148;BMP280;68562;51.600;6.524;2023-04-30T12:10:00;1020.8;;;32.7
79148;BMP280;68562;51.600;6.524;2023-04-30T12:15:09;1020.8;;;32.6
79148;BMP280;68562;51.600;6.524;2023-04-30T12:20:00;1020.8;;;33.0
79148;BMP280;68562;51.600;6.524;2023-04-30T12:25:05;1020.7;;;33.4
79148;BMP280;68562;51.600;6.524;2023-04-30T12:30:02;1020.7;;;33.5
79148;BMP280;68562;51.600;6.524;2023-04-30T12:35:00;1020.6;;;33.1
79148;BMP280;68562;51.600;6.524;2023-04-30T12:40:00;1020.7;;;33.2
79148;BMP280;68562;51.600;6.524;2023-04-30T12:45:00;1020.6;;;33.1
79148;BMP280;68562;51.600;6.524;2023-04-30T12:50:00;1020.6;;;32.9
79148;BMP280;68562;51.600;6.524;2023-04-30T12:55:13;1020.6;;;32.8
79148;BMP280;68562;51.600;6.524;2023-04-30T13:00:00;1020.5;;;32.4
79148;BMP280;68562;51.600;6.524;2023-04-30T13:05:00;1020.4;;;32.8
79148;BMP280;68562;51.600;6.524;2023-04-30T13:10:00;1020.4;;;33.8
79148;BMP280;68562;51.600;6.524;2023-04-30T13:15:00;1020.4;;;34.3
79148;BMP280;68562;51.600;6.524;2023-04-30T13:20:00;1020.4;;;33.6
79148;BMP280;68562;51.600;6.524;2023-04-30T13:25:00;1020.3;;;32.7
79148;BMP280;68562;51.600;6.524;2023-04-30T13:30:01;1020.2;;;32.4
79148;BMP280;68562;51.600;6.524;2023-04-30T13:35:00;1020.1;;;33.1
79148;BMP280;68562;51.600;6.524;2023-04-30T13:40:00;1020.1;;;34.0
79148;BMP280;68562;51.600;6.524;2023-04-30T13:45:00;1020.0;;;33.8
79148;BMP280;68562;51.600;6.524;2023-04-30T13:50:00;1020.0;;;33.0
79148;BMP280;68562;51.600;6.524;2023-04-30T13:55:00;1019.9;;;32.5
79148;BMP280;68562;51.600;6.524;2023-04-30T14:00:00;1019.9;;;32.6
79148;BMP280;68562;51.600;6.524;2023-04-30T14:05:01;1019.9;;;32.1
79148;BMP280;68562;51.600;6.524;2023-04-30T14:10:00;1019.9;;;31.6
79148;BMP280;68562;51.600;6.524;2023-04-30T14:15:00;1019.8;;;32.1
79148;BMP280;68562;51.600;6.524;2023-04-30T14:20:00;1019.8;;;33.3
79148;BMP280;68562;51.600;6.524;2023-04-30T14:25:00;1019.8;;;34.3
79148;BMP280;68562;51.600;6.524;2023-04-30T14:30:00;1019.6;;;34.6
79148;BMP280;68562;51.600;6.524;2023-04-30T14:35:00;1019.6;;;34.9
79148;BMP280;68562;51.600;6.524;2023-04-30T14:40:00;1019.6;;;34.5
79148;BMP280;68562;51.600;6.524;2023-04-30T14:45:00;1019.6;;;33.4
79148;BMP280;68562;51.600;6.524;2023-04-30T14:50:00;1019.5;;;32.2
79148;BMP280;68562;51.600;6.524;2023-04-30T14:55:00;1019.6;;;31.5
79148;BMP280;68562;51.600;6.524;2023-04-30T15:00:00;1019.5;;;31.9
79148;BMP280;68562;51.600;6.524;2023-04-30T15:05:02;1019.5;;;32.4
79148;BMP280;68562;51.600;6.524;2023-04-30T15:10:00;1019.4;;;32.1
79148;BMP280;68562;51.600;6.524;2023-04-30T15:15:00;1019.3;;;31.9
79148;BMP280;68562;51.600;6.524;2023-04-30T15:20:00;1019.3;;;32.2
79148;BMP280;68562;51.600;6.524;2023-04-30T15:25:00;1019.3;;;32.3
79148;BMP280;68562;51.600;6.524;2023-04-30T15:30:00;1019.2;;;32.3
79148;BMP280;68562;51.600;6.524;2023-04-30T15:35:00;1019.2;;;32.5
79148;BMP280;68562;51.600;6.524;2023-04-30T15:40:00;1019.1;;;32.5
79148;BMP280;68562;51.600;6.524;2023-04-30T15:45:00;1019.1;;;32.1
79148;BMP280;68562;51.600;6.524;2023-04-30T15:50:00;1019.0;;;31.5
79148;BMP280;68562;51.600;6.524;2023-04-30T15:55:00;1018.9;;;31.2
79148;BMP280;68562;51.600;6.524;2023-04-30T16:00:00;1018.9;;;31.0
79148;BMP280;68562;51.600;6.524;2023-04-30T16:05:00;1018.8;;;30.7
79148;BMP280;68562;51.600;6.524;2023-04-30T16:10:00;1018.8;;;30.6
79148;BMP280;68562;51.600;6.524;2023-04-30T16:15:00;1018.7;;;30.9
79148;BMP280;68562;51.600;6.524;2023-04-30T16:20:00;1018.7;;;31.1
79148;BMP280;68562;51.600;6.524;2023-04-30T16:25:00;1018.6;;;31.1
79148;BMP280;68562;51.600;6.524;2023-04-30T16:30:00;1018.6;;;31.0
79148;BMP280;68562;51.600;6.524;2023-04-30T16:35:00;1018.5;;;30.9
79148;BMP280;68562;51.600;6.524;2023-04-30T16:40:00;1018.5;;;30.6
79148;BMP280;68562;51.600;6.524;2023-04-30T16:45:00;1018.5;;;30.0
79148;BMP280;68562;51.600;6.524;2023-04-30T16:50:00;1018.5;;;28.9
79148;BMP280;68562;51.600;6.524;2023-04-30T16:55:00;1018.6;;;27.9
79148;BMP280;68562;51.600;6.524;2023-04-30T17:00:00;1018.6;;;27.0
79148;BMP280;68562;51.600;6.524;2023-04-30T17:05:00;1018.6;;;26.4
79148;BMP280;68562;51.600;6.524;2023-04-30T17:10:00;1018.5;;;25.9
79148;BMP280;68562;51.600;6.524;2023-04-30T17:15:00;1018.5;;;25.3
79148;BMP280;68562;51.600;6.524;2023-04-30T17:20:00;1018.4;;;24.9
79148;BMP280;68562;51.600;6.524;2023-04-30T17:25:00;1018.4;;;24.5
79148;BMP280;68562;51.600;6.524;2023-04-30T17:30:00;1018.3;;;24.1
79148;BMP280;68562;51.600;6.524;2023-04-30T17:35:00;1018.4;;;23.8
79148;BMP280;68562;51.600;6.524;2023-04-30T17:40:00;1018.4;;;23.5
79148;BMP280;68562;51.600;6.524;2023-04-30T17:45:00;1018.4;;;23.2
79148;BMP280;68562;51.600;6.524;2023-04-30T17:50:00;1018.4;;;23.0
79148;BMP280;68562;51.600;6.524;2023-04-30T17:55:00;1018.3;;;22.8
79148;BMP280;68562;51.600;6.524;2023-04-30T18:00:00;1018.3;;;22.5
79148;BMP280;68562;51.600;6.524;2023-04-30T18:05:00;1018.3;;;22.3
79148;BMP280;68562;51.600;6.524;2023-04-30T18:10:00;1018.3;;;22.1
79148;BMP280;68562;51.600;6.524;2023-04-30T18:15:00;1018.3;;;22.0
79148;BMP280;68562;51.600;6.524;2023-04-30T18:20:00;1018.2;;;21.8
79148;BMP280;68562;51.600;6.524;2023-04-30T18:25:00;1018.2;;;21.6
79148;BMP280;68562;51.600;6.524;2023-04-30T18:30:00;1018.2;;;21.4
79148;BMP280;68562;51.600;6.524;2023-04-30T18:35:00;1018.2;;;21.2
79148;BMP280;68562;51.600;6.524;2023-04-30T18:40:00;1018.1;;;21.0
79148;BMP280;68562;51.600;6.524;2023-04-30T18:45:00;1018.1;;;20.8
79148;BMP280;68562;51.600;6.524;2023-04-30T18:50:00;1018.1;;;20.6
79148;BMP280;68562;51.600;6.524;2023-04-30T18:55:00;1018.1;;;20.4
79148;BMP280;68562;51.600;6.524;2023-04-30T19:00:00;1018.1;;;20.2
79148;BMP280;68562;51.600;6.524;2023-04-30T19:05:00;1018.1;;;20.0
79148;BMP280;68562;51.600;6.524;2023-04-30T19:10:00;1018.1;;;19.8
79148;BMP280;68562;51.600;6.524;2023-04-30T19:15:00;1018.2;;;19.6
79148;BMP280;68562;51.600;6.524;2023-04-30T19:20:00;1018.2;;;19.5
79148;BMP280;68562;51.600;6.524;2023-04-30T19:25:00;1018.2;;;19.3
79148;BMP280;68562;51.600;6.524;2023-04-30T19:30:00;1018.2;;;19.1
79148;BMP280;68562;51.600;6.524;2023-04-30T19:35:00;1018.2;;;19.0
79148;BMP280;68562;51.600;6.524;2023-04-30T19:40:00;1018.3;;;18.8
79148;BMP280;68562;51.600;6.524;2023-04-30T19:45:00;1018.3;;;18.7
79148;BMP280;68562;51.600;6.524;2023-04-30T19:50:00;1018.3;;;18.6
79148;BMP280;68562;51.600;6.524;2023-04-30T19:55:00;1018.3;;;18.5
79148;BMP280;68562;51.600;6.524;2023-04-30T20:00:00;1018.3;;;18.3
79148;BMP280;68562;51.600;6.524;2023-04-30T20:05:00;1018.3;;;18.2
79148;BMP280;68562;51.600;6.524;2023-04-30T20:10:00;1018.3;;;18.1
79148;BMP280;68562;51.600;6.524;2023-04-30T20:15:00;1018.3;;;18.0
79148;BMP280;68562;51.600;6.524;2023-04-30T20:20:00;1018.3;;;17.9
79148;BMP280;68562;51.600;6.524;2023-04-30T20:25:00;1018.3;;;17.8
79148;BMP280;68562;51.600;6.524;2023-04-30T20:30:00;1018.3;;;17.6
79148;BMP280;68562;51.600;6.524;2023-04-30T20:35:02;1018.2;;;17.5
79148;BMP280;68562;51.600;6.524;2023-04-30T20:40:00;1018.2;;;17.4
79148;BMP280;68562;51.600;6.524;2023-04-30T20:45:00;1018.1;;;17.3
79148;BMP280;68562;51.600;6.524;2023-04-30T20:50:00;1018.1;;;17.2
79148;BMP280;68562;51.600;6.524;2023-04-30T20:55:00;1018.1;;;17.1
79148;BMP280;68562;51.600;6.524;2023-04-30T21:00:01;1018.1;;;17.0
79148;BMP280;68562;51.600;6.524;2023-04-30T21:05:00;1018.0;;;17.0
79148;BMP280;68562;51.600;6.524;2023-04-30T21:10:00;1018.0;;;16.9
79148;BMP280;68562;51.600;6.524;2023-04-30T21:15:00;1018.0;;;16.8
79148;BMP280;68562;51.600;6.524;2023-04-30T21:20:00;1018.0;;;16.7
79148;BMP280;68562;51.600;6.524;2023-04-30T21:25:00;1017.9;;;16.7
79148;BMP280;68562;51.600;6.524;2023-04-30T21:30:00;1017.9;;;16.6
79148;BMP280;68562;51.600;6.524;2023-04-30T21:35:00;1017.8;;;16.5
79148;BMP280;68562;51.600;6.524;2023-04-30T21:40:00;1017.8;;;16.5
79148;BMP280;68562;51.600;6.524;2023-04-30T21:45:00;1017.8;;;16.4
79148;BMP280;68562;51.600;6.524;2023-04-30T21:50:00;1017.7;;;16.3
79148;BMP280;68562;51.600;6.524;2023-04-30T21:55:00;1017.7;;;16.3
79148;BMP280;68562;51.600;6.524;2023-04-30T22:00:00;1017.6;;;16.2
79148;BMP280;68562;51.600;6.524;2023-04-30T22:05:00;1017.6;;;16.2
79148;BMP280;68562;51.600;6.524;2023-04-30T22:10:00;1017.5;;;16.1
79148;BMP280;68562;51.600;6.524;2023-04-30T22:15:00;1017.5;;;16.0
79148;BMP280;68562;51.600;6.524;2023-04-30T22:20:00;1017.4;;;16.0
79148;BMP280;68562;51.600;6.524;2023-04-30T22:25:00;1017.4;;;15.9
79148;BMP280;68562;51.600;6.524;2023-04-30T22:30:00;1017.3;;;15.9
79148;BMP280;68562;51.600;6.524;2023-04-30T22:35:00;1017.3;;;15.8
79148;BMP280;68562;51.600;6.524;2023-04-30T22:40:00;1017.2;;;15.8
79148;BMP280;68562;51.600;6.524;2023-04-30T22:45:00;1017.2;;;15.7
79148;BMP280;68562;51.600;6.524;2023-04-30T22:50:00;1017.2;;;15.7
79148;BMP280;68562;51.600;6.524;2023-04-30T22:55:00;1017.1;;;15.6
79148;BMP280;68562;51.600;6.524;2023-04-30T23:00:00;1017.1;;;15.6
79148;BMP280;68562;51.600;6.524;2023-04-30T23:05:00;1017.0;;;15.5
79148;BMP280;68562;51.600;6.524;2023-04-30T23:10:00;1017.0;;;15.5
79148;BMP280;68562;51.600;6.524;2023-04-30T23:15:00;1017.0;;;15.4
79148;BMP280;68562;51.600;6.524;2023-04-30T23:20:00;1017.0;;;15.4
79148;BMP280;68562;51.600;6.524;2023-04-30T23:25:00;1017.0;;;15.4
79148;BMP280;68562;51.600;6.524;2023-04-30T23:30:00;1016.9;;;15.4
79148;BMP280;68562;51.600;6.524;2023-04-30T23:35:00;1016.8;;;15.4
79148;BMP280;68562;51.600;6.524;2023-04-30T23:40:00;1016.8;;;15.4
79148;BMP280;68562;51.600;6.524;2023-04-30T23:45:00;1016.7;;;15.3
79148;BMP280;68562;51.600;6.524;2023-04-30T23:50:00;1016.7;;;15.3
79148;BMP280;68562;51.600;6.524;2023-04-30T23:55:00;1016.6;;;15.3
